createdAt,value
2019-04-29T00:00:50.155Z,0.80
2019-04-29T00:03:17.497Z,1.00
2019-04-29T00:05:45.379Z,0.90
2019-04-29T00:08:13.720Z,0.90
2019-04-29T00:10:43.340Z,0.80
2019-04-29T00:13:11.759Z,0.90
2019-04-29T00:16:06.055Z,0.90
2019-04-29T00:18:48.944Z,0.90
2019-04-29T00:21:16.943Z,0.80
2019-04-29T00:23:44.195Z,1.10
2019-04-29T00:26:11.610Z,0.90
2019-04-29T00:28:40.237Z,1.20
2019-04-29T00:31:07.351Z,1.10
2019-04-29T00:33:34.811Z,0.90
2019-04-29T00:36:01.806Z,0.80
2019-04-29T00:38:47.899Z,1.00
2019-04-29T00:41:49.591Z,1.80
2019-04-29T00:44:17.832Z,1.37
2019-04-29T00:46:46.180Z,0.97
2019-04-29T00:49:13.871Z,0.80
2019-04-29T00:51:41.018Z,0.80
2019-04-29T00:54:16.148Z,0.70
2019-04-29T00:56:43.427Z,0.80
2019-04-29T00:59:11.204Z,1.33
2019-04-29T01:01:38.471Z,0.80
2019-04-29T01:04:06.288Z,0.90
2019-04-29T01:06:35.219Z,0.80
2019-04-29T01:09:03.864Z,0.80
2019-04-29T01:11:30.976Z,0.70
2019-04-29T01:13:59.023Z,0.77
2019-04-29T01:16:27.119Z,0.80
2019-04-29T01:18:54.375Z,0.80
2019-04-29T01:21:23.771Z,0.70
2019-04-29T01:23:51.263Z,0.77
2019-04-29T01:26:44.068Z,0.80
2019-04-29T01:29:12.316Z,0.80
2019-04-29T01:31:39.471Z,0.67
2019-04-29T01:34:12.363Z,0.70
2019-04-29T01:36:41.253Z,0.77
2019-04-29T01:39:11.243Z,0.80
2019-04-29T01:41:53.480Z,0.77
2019-04-29T01:44:21.400Z,0.70
2019-04-29T01:46:49.359Z,0.63
2019-04-29T01:49:17.249Z,0.90
2019-04-29T01:51:45.043Z,0.90
2019-04-29T01:54:12.879Z,1.03
2019-04-29T01:56:40.323Z,0.80
2019-04-29T01:59:07.724Z,0.90
2019-04-29T02:01:35.616Z,0.80
2019-04-29T02:04:03.576Z,0.80
2019-04-29T02:06:31.599Z,1.00
2019-04-29T02:08:59.796Z,1.27
2019-04-29T02:11:27.408Z,0.97
2019-04-29T02:13:54.655Z,1.00
2019-04-29T02:16:22.143Z,1.20
2019-04-29T02:18:49.139Z,0.80
2019-04-29T02:21:17.319Z,0.80
2019-04-29T02:23:57.292Z,1.10
2019-04-29T02:26:24.423Z,1.00
2019-04-29T02:28:52.423Z,1.20
2019-04-29T02:31:37.915Z,1.40
2019-04-29T02:34:05.374Z,1.10
2019-04-29T02:36:32.515Z,0.90
2019-04-29T02:39:32.125Z,1.10
2019-04-29T02:42:28.019Z,0.90
2019-04-29T02:44:57.861Z,1.33
2019-04-29T02:47:25.832Z,1.00
2019-04-29T02:49:55.086Z,0.90
2019-04-29T02:52:22.891Z,1.03
2019-04-29T02:54:52.060Z,0.80
2019-04-29T02:57:48.075Z,1.27
2019-04-29T03:00:27.654Z,1.10
2019-04-29T03:03:05.636Z,0.97
2019-04-29T03:05:44.701Z,1.10
2019-04-29T03:08:12.941Z,1.30
2019-04-29T03:10:40.315Z,0.80
2019-04-29T03:13:07.541Z,1.10
2019-04-29T03:15:39.251Z,1.10
2019-04-29T03:18:06.840Z,0.87
2019-04-29T03:20:45.000Z,1.10
2019-04-29T03:23:15.043Z,1.00
2019-04-29T03:25:42.303Z,1.10
2019-04-29T03:28:10.244Z,1.00
2019-04-29T03:30:37.537Z,1.10
2019-04-29T03:33:04.863Z,1.10
2019-04-29T03:35:32.925Z,1.03
2019-04-29T03:37:59.977Z,1.40
2019-04-29T03:40:27.481Z,1.23
2019-04-29T03:42:55.701Z,1.30
2019-04-29T03:45:23.617Z,1.33
2019-04-29T03:47:52.504Z,1.23
2019-04-29T03:50:21.070Z,1.03
2019-04-29T03:52:48.306Z,1.40
2019-04-29T03:55:16.938Z,1.10
2019-04-29T03:57:44.928Z,1.10
2019-04-29T04:00:14.721Z,1.60
2019-04-29T04:02:55.200Z,1.00
2019-04-29T04:05:35.673Z,0.80
2019-04-29T04:08:27.164Z,1.00
2019-04-29T04:10:54.335Z,0.93
2019-04-29T04:13:21.917Z,1.03
2019-04-29T04:15:49.545Z,1.20
2019-04-29T04:18:24.095Z,1.30
2019-04-29T04:20:51.710Z,1.20
2019-04-29T04:23:19.206Z,1.30
2019-04-29T04:25:46.668Z,1.47
2019-04-29T04:28:13.766Z,1.60
2019-04-29T04:30:41.397Z,0.90
2019-04-29T04:33:09.472Z,1.50
2019-04-29T04:35:37.297Z,1.30
2019-04-29T04:38:04.329Z,1.50
2019-04-29T04:40:37.259Z,1.30
2019-04-29T04:43:05.004Z,1.20
2019-04-29T04:45:32.333Z,1.30
2019-04-29T04:47:59.570Z,1.37
2019-04-29T04:50:26.876Z,1.50
2019-04-29T04:52:54.501Z,1.13
2019-04-29T04:55:24.423Z,1.10
2019-04-29T04:57:52.027Z,1.27
2019-04-29T05:00:22.132Z,1.40
2019-04-29T05:02:49.799Z,1.60
2019-04-29T05:05:17.183Z,2.30
2019-04-29T05:07:44.480Z,1.30
2019-04-29T05:10:12.252Z,1.53
2019-04-29T05:12:39.393Z,1.33
2019-04-29T05:15:06.751Z,1.23
2019-04-29T05:17:34.073Z,1.60
2019-04-29T05:20:02.815Z,1.53
2019-04-29T05:22:29.655Z,1.73
2019-04-29T05:24:58.375Z,2.50
2019-04-29T05:27:25.484Z,1.70
2019-04-29T05:29:52.648Z,1.90
2019-04-29T05:32:19.660Z,1.90
2019-04-29T05:34:50.013Z,1.70
2019-04-29T05:37:26.667Z,1.57
2019-04-29T05:39:54.023Z,1.93
2019-04-29T05:42:22.831Z,1.80
2019-04-29T05:44:59.188Z,2.50
2019-04-29T05:47:46.348Z,1.60
2019-04-29T05:50:39.271Z,1.83
2019-04-29T05:53:28.259Z,2.00
2019-04-29T05:55:55.656Z,2.00
2019-04-29T05:58:23.759Z,2.03
2019-04-29T06:01:01.040Z,2.00
2019-04-29T06:03:29.222Z,2.20
2019-04-29T06:05:57.544Z,2.17
2019-04-29T06:08:24.852Z,2.30
2019-04-29T06:10:52.099Z,2.60
2019-04-29T06:13:19.445Z,1.80
2019-04-29T06:15:48.552Z,2.10
2019-04-29T06:18:17.611Z,2.43
2019-04-29T06:20:45.315Z,2.40
2019-04-29T06:23:13.136Z,3.00
2019-04-29T06:25:40.400Z,2.40
2019-04-29T06:28:09.419Z,2.40
2019-04-29T06:30:40.464Z,2.80
2019-04-29T06:33:08.059Z,3.13
2019-04-29T06:35:35.220Z,2.70
2019-04-29T06:38:03.936Z,2.30
2019-04-29T06:40:35.289Z,2.83
2019-04-29T06:43:01.211Z,2.50
2019-04-29T06:45:28.510Z,2.30
2019-04-29T06:47:57.063Z,2.83
2019-04-29T06:50:24.987Z,2.60
2019-04-29T06:52:52.763Z,2.50
2019-04-29T06:55:19.936Z,2.77
2019-04-29T06:57:47.988Z,3.10
2019-04-29T07:00:17.689Z,3.20
2019-04-29T07:02:49.958Z,3.37
2019-04-29T07:05:15.415Z,3.30
2019-04-29T07:07:42.527Z,4.17
2019-04-29T07:10:12.069Z,3.73
2019-04-29T07:12:42.851Z,3.43
2019-04-29T07:15:12.191Z,3.43
2019-04-29T07:17:41.350Z,3.77
2019-04-29T07:20:07.576Z,3.57
2019-04-29T07:22:35.448Z,3.77
2019-04-29T07:25:02.952Z,4.30
2019-04-29T07:27:30.270Z,3.63
2019-04-29T07:30:01.877Z,3.60
2019-04-29T07:32:26.979Z,3.30
2019-04-29T07:34:53.975Z,3.27
2019-04-29T07:37:21.163Z,4.07
2019-04-29T07:39:49.151Z,3.50
2019-04-29T07:42:17.670Z,3.53
2019-04-29T07:45:03.921Z,4.57
2019-04-29T07:47:31.392Z,3.13
2019-04-29T07:49:58.387Z,3.10
2019-04-29T07:52:25.488Z,2.83
2019-04-29T07:54:56.039Z,2.63
2019-04-29T07:57:21.772Z,2.70
2019-04-29T07:59:49.363Z,2.83
2019-04-29T08:02:16.354Z,2.67
2019-04-29T08:04:45.920Z,2.13
2019-04-29T08:07:13.259Z,2.10
2019-04-29T08:09:44.160Z,1.77
2019-04-29T08:12:11.699Z,2.23
2019-04-29T08:14:39.276Z,1.70
2019-04-29T08:17:06.680Z,2.13
2019-04-29T08:19:33.735Z,1.53
2019-04-29T08:22:01.159Z,2.17
2019-04-29T08:24:28.748Z,2.27
2019-04-29T08:26:56.801Z,1.77
2019-04-29T08:29:25.208Z,1.70
2019-04-29T08:31:57.347Z,2.20
2019-04-29T08:34:24.219Z,2.30
2019-04-29T08:36:52.704Z,1.80
2019-04-29T08:39:19.560Z,1.97
2019-04-29T08:41:46.684Z,1.87
2019-04-29T08:44:42.583Z,2.13
2019-04-29T08:47:16.647Z,1.70
2019-04-29T08:49:44.488Z,1.87
2019-04-29T08:52:12.076Z,2.07
2019-04-29T08:54:39.274Z,1.90
2019-04-29T08:57:06.312Z,2.47
2019-04-29T08:59:34.215Z,2.20
2019-04-29T09:02:05.183Z,1.70
2019-04-29T09:04:33.350Z,1.50
2019-04-29T09:07:12.399Z,1.77
2019-04-29T09:09:31.112Z,1.50
2019-04-29T09:11:59.196Z,1.50
2019-04-29T09:14:26.920Z,1.67
2019-04-29T09:16:56.044Z,1.40
2019-04-29T09:19:23.643Z,1.50
2019-04-29T09:21:55.010Z,1.70
2019-04-29T09:24:22.328Z,1.67
2019-04-29T09:26:54.959Z,1.40
2019-04-29T09:29:35.048Z,1.50
2019-04-29T09:32:04.818Z,1.20
2019-04-29T09:34:32.299Z,1.10
2019-04-29T09:36:59.299Z,1.40
2019-04-29T09:39:27.924Z,1.43
2019-04-29T09:42:03.461Z,1.47
2019-04-29T09:44:47.011Z,1.17
2019-04-29T09:47:14.308Z,1.40
2019-04-29T09:49:42.020Z,1.30
2019-04-29T09:52:09.387Z,1.40
2019-04-29T09:54:37.780Z,1.57
2019-04-29T09:57:06.380Z,1.33
2019-04-29T09:59:39.000Z,2.37
2019-04-29T10:02:26.339Z,0.93
2019-04-29T10:05:01.479Z,1.10
2019-04-29T10:07:28.619Z,1.60
2019-04-29T10:09:57.318Z,1.07
2019-04-29T10:12:24.695Z,1.60
2019-04-29T10:14:52.188Z,1.57
2019-04-29T10:17:45.817Z,1.07
2019-04-29T10:20:17.395Z,1.30
2019-04-29T10:22:44.616Z,1.10
2019-04-29T10:25:13.129Z,1.30
2019-04-29T10:27:40.475Z,1.47
2019-04-29T10:30:08.725Z,1.10
2019-04-29T10:32:37.846Z,1.17
2019-04-29T10:35:08.724Z,1.10
2019-04-29T10:37:35.295Z,1.10
2019-04-29T10:40:35.399Z,1.17
2019-04-29T10:43:22.075Z,1.10
2019-04-29T10:46:10.871Z,0.93
2019-04-29T10:48:47.631Z,1.50
2019-04-29T10:51:15.435Z,1.20
2019-04-29T10:53:46.598Z,1.10
2019-04-29T10:56:12.828Z,1.13
2019-04-29T10:58:40.812Z,1.60
2019-04-29T11:02:13.396Z,1.53
2019-04-29T11:04:38.031Z,1.20
2019-04-29T11:07:25.940Z,1.13
2019-04-29T11:09:56.394Z,1.33
2019-04-29T11:12:23.554Z,1.27
2019-04-29T11:14:52.591Z,1.23
2019-04-29T11:17:24.371Z,1.43
2019-04-29T11:19:52.595Z,1.50
2019-04-29T11:22:21.878Z,1.50
2019-04-29T11:24:59.892Z,1.20
2019-04-29T11:27:31.323Z,1.57
2019-04-29T11:30:02.269Z,1.30
2019-04-29T11:32:35.030Z,1.57
2019-04-29T11:35:10.999Z,1.20
2019-04-29T11:37:38.671Z,1.33
2019-04-29T11:40:07.256Z,1.70
2019-04-29T11:42:36.789Z,1.60
2019-04-29T11:45:07.801Z,1.20
2019-04-29T11:47:35.051Z,1.50
2019-04-29T11:50:13.653Z,1.40
2019-04-29T11:52:41.235Z,1.40
2019-04-29T11:55:09.440Z,1.50
2019-04-29T11:57:49.528Z,1.83
2019-04-29T12:00:42.001Z,1.63
2019-04-29T12:03:14.404Z,1.30
2019-04-29T12:05:46.325Z,1.77
2019-04-29T12:08:17.084Z,2.13
2019-04-29T12:10:46.895Z,1.70
2019-04-29T12:13:18.977Z,1.73
2019-04-29T12:16:14.355Z,1.20
2019-04-29T12:18:47.168Z,1.83
2019-04-29T12:21:20.476Z,1.70
2019-04-29T12:23:52.058Z,2.00
2019-04-29T12:26:19.732Z,1.10
2019-04-29T12:28:46.936Z,1.60
2019-04-29T12:31:24.060Z,1.60
2019-04-29T12:34:00.748Z,1.67
2019-04-29T12:36:29.299Z,1.40
2019-04-29T12:39:42.767Z,1.40
2019-04-29T12:42:17.167Z,1.83
2019-04-29T12:44:49.796Z,1.80
2019-04-29T12:47:26.867Z,1.70
2019-04-29T12:49:52.764Z,1.50
2019-04-29T12:52:21.286Z,1.40
2019-04-29T12:54:48.800Z,1.70
2019-04-29T12:57:18.807Z,1.73
2019-04-29T12:59:45.763Z,2.10
2019-04-29T13:02:24.506Z,1.47
2019-04-29T13:05:09.363Z,1.27
2019-04-29T13:07:54.171Z,1.70
2019-04-29T13:10:27.331Z,1.70
2019-04-29T13:12:57.879Z,1.40
2019-04-29T13:15:37.295Z,1.50
2019-04-29T13:18:13.881Z,1.77
2019-04-29T13:20:41.643Z,1.30
2019-04-29T13:23:17.705Z,1.60
2019-04-29T13:25:38.586Z,1.50
2019-04-29T13:28:06.081Z,1.50
2019-04-29T13:30:33.079Z,1.40
2019-04-29T13:33:05.924Z,1.87
2019-04-29T13:35:32.323Z,2.10
2019-04-29T13:37:59.496Z,1.73
2019-04-29T13:40:28.247Z,2.40
2019-04-29T13:42:57.175Z,2.30
2019-04-29T13:45:31.746Z,2.07
2019-04-29T13:48:09.178Z,1.67
2019-04-29T13:50:57.032Z,2.10
2019-04-29T13:53:25.675Z,1.60
2019-04-29T13:56:10.473Z,1.83
2019-04-29T13:58:27.165Z,2.07
2019-04-29T14:01:23.900Z,2.90
2019-04-29T14:03:51.788Z,2.13
2019-04-29T14:06:19.914Z,1.97
2019-04-29T14:08:48.497Z,2.10
2019-04-29T14:11:15.507Z,2.90
2019-04-29T14:13:48.179Z,2.17
2019-04-29T14:16:13.343Z,1.97
2019-04-29T14:18:43.657Z,2.30
2019-04-29T14:21:11.971Z,1.50
2019-04-29T14:23:39.324Z,2.33
2019-04-29T14:26:07.403Z,2.20
2019-04-29T14:28:36.497Z,2.37
2019-04-29T14:31:04.128Z,2.40
2019-04-29T14:33:36.885Z,2.50
2019-04-29T14:36:07.047Z,2.10
2019-04-29T14:38:36.027Z,3.10
2019-04-29T14:41:04.628Z,2.53
2019-04-29T14:43:57.927Z,2.60
2019-04-29T14:46:44.612Z,2.90
2019-04-29T14:49:15.955Z,2.60
2019-04-29T14:51:43.235Z,2.70
2019-04-29T14:54:11.127Z,2.37
2019-04-29T14:56:38.167Z,2.47
2019-04-29T14:59:07.789Z,2.97
2019-04-29T15:01:50.649Z,2.10
2019-04-29T15:04:21.193Z,3.00
2019-04-29T15:06:48.509Z,2.60
2019-04-29T15:09:18.165Z,3.00
2019-04-29T15:11:58.816Z,2.80
2019-04-29T15:15:03.419Z,2.90
2019-04-29T15:17:51.852Z,3.10
2019-04-29T15:20:41.419Z,3.10
2019-04-29T15:23:10.748Z,2.33
2019-04-29T15:25:38.303Z,2.40
2019-04-29T15:28:06.136Z,2.83
2019-04-29T15:30:36.680Z,2.63
2019-04-29T15:33:02.163Z,2.33
2019-04-29T15:35:29.667Z,3.20
2019-04-29T15:37:57.204Z,2.10
2019-04-29T15:40:26.423Z,2.20
2019-04-29T15:42:54.375Z,2.10
2019-04-29T15:45:21.908Z,2.33
2019-04-29T15:47:50.068Z,2.10
2019-04-29T15:50:19.304Z,2.27
2019-04-29T15:52:47.597Z,2.67
2019-04-29T15:55:15.961Z,2.53
2019-04-29T15:57:49.573Z,2.10
2019-04-29T16:00:21.871Z,1.77
2019-04-29T16:02:44.222Z,1.93
2019-04-29T16:05:24.304Z,2.20
2019-04-29T16:08:04.363Z,2.30
2019-04-29T16:10:57.828Z,2.00
2019-04-29T16:13:27.742Z,2.50
2019-04-29T16:15:51.784Z,2.20
2019-04-29T16:18:19.252Z,2.97
2019-04-29T16:20:53.766Z,2.70
2019-04-29T16:23:17.827Z,2.67
2019-04-29T16:25:46.343Z,2.70
2019-04-29T16:28:14.316Z,2.20
2019-04-29T16:30:41.439Z,2.47
2019-04-29T16:33:13.900Z,2.50
2019-04-29T16:35:39.121Z,2.07
2019-04-29T16:38:11.640Z,2.13
2019-04-29T16:40:41.272Z,2.60
2019-04-29T16:43:37.991Z,2.43
2019-04-29T16:46:35.564Z,2.20
2019-04-29T16:48:58.792Z,2.60
2019-04-29T16:51:27.014Z,2.60
2019-04-29T16:53:54.443Z,2.53
2019-04-29T16:56:21.703Z,3.00
2019-04-29T16:58:49.218Z,2.80
2019-04-29T17:01:16.267Z,2.80
2019-04-29T17:03:43.967Z,3.77
2019-04-29T17:06:11.951Z,4.13
2019-04-29T17:09:03.574Z,4.77
2019-04-29T17:11:28.551Z,3.17
2019-04-29T17:13:55.499Z,2.73
2019-04-29T17:16:24.804Z,3.50
2019-04-29T17:18:53.063Z,3.40
2019-04-29T17:21:20.128Z,3.43
2019-04-29T17:23:48.176Z,2.97
2019-04-29T17:26:16.171Z,3.50
2019-04-29T17:28:53.666Z,3.90
2019-04-29T17:31:56.229Z,4.47
2019-04-29T17:34:44.039Z,2.77
2019-04-29T17:36:48.603Z,3.60
2019-04-29T17:39:16.839Z,3.00
2019-04-29T17:41:43.893Z,2.97
2019-04-29T17:44:46.672Z,2.30
2019-04-29T17:47:26.467Z,2.67
2019-04-29T17:50:02.088Z,3.07
2019-04-29T17:52:29.996Z,3.50
2019-04-29T17:55:21.507Z,3.63
2019-04-29T17:57:54.932Z,3.17
2019-04-29T18:00:44.475Z,3.47
2019-04-29T18:03:21.223Z,3.13
2019-04-29T18:06:08.292Z,3.10
2019-04-29T18:08:41.847Z,3.57
2019-04-29T18:11:09.573Z,3.40
2019-04-29T18:13:37.515Z,3.33
2019-04-29T18:16:17.323Z,3.07
2019-04-29T18:18:53.550Z,3.30
2019-04-29T18:21:47.334Z,3.60
2019-04-29T18:24:35.992Z,3.40
2019-04-29T18:27:06.071Z,3.63
2019-04-29T18:29:40.882Z,3.77
2019-04-29T18:32:05.175Z,3.07
2019-04-29T18:34:33.770Z,3.77
2019-04-29T18:37:01.661Z,3.40
2019-04-29T18:39:31.679Z,3.60
2019-04-29T18:42:03.265Z,3.43
2019-04-29T18:44:29.604Z,2.90
2019-04-29T18:46:57.856Z,4.00
2019-04-29T18:49:26.127Z,3.40
2019-04-29T18:51:57.900Z,3.17
2019-04-29T18:54:25.407Z,3.80
2019-04-29T18:56:52.953Z,4.00
2019-04-29T18:59:30.425Z,3.73
2019-04-29T19:01:50.915Z,3.77
2019-04-29T19:04:30.152Z,2.87
2019-04-29T19:07:02.148Z,3.60
2019-04-29T19:09:32.290Z,3.57
2019-04-29T19:11:59.835Z,4.00
2019-04-29T19:14:28.367Z,3.80
2019-04-29T19:17:00.196Z,4.13
2019-04-29T19:19:25.346Z,4.03
2019-04-29T19:21:53.269Z,4.47
2019-04-29T19:24:20.447Z,3.90
2019-04-29T19:26:48.884Z,4.07
2019-04-29T19:29:16.308Z,4.00
2019-04-29T19:31:48.612Z,4.23
2019-04-29T19:34:14.801Z,5.00
2019-04-29T19:36:45.013Z,4.40
2019-04-29T19:39:17.014Z,4.53
2019-04-29T19:41:49.338Z,4.50
2019-04-29T19:44:15.534Z,4.43
2019-04-29T19:46:45.335Z,4.70
2019-04-29T19:49:12.751Z,5.27
2019-04-29T19:51:43.578Z,5.00
2019-04-29T19:54:10.327Z,4.90
2019-04-29T19:56:38.236Z,4.83
2019-04-29T19:59:11.843Z,5.03
2019-04-29T20:01:37.933Z,5.03
2019-04-29T20:04:30.369Z,5.23
2019-04-29T20:07:05.960Z,5.63
2019-04-29T20:09:29.210Z,6.10
2019-04-29T20:11:57.725Z,5.70
2019-04-29T20:14:30.189Z,5.53
2019-04-29T20:17:12.922Z,6.00
2019-04-29T20:19:41.611Z,6.17
2019-04-29T20:22:09.824Z,6.47
2019-04-29T20:24:38.590Z,5.43
2019-04-29T20:27:09.604Z,5.80
2019-04-29T20:29:38.729Z,6.77
2019-04-29T20:32:07.912Z,6.70
2019-04-29T20:34:36.202Z,5.97
2019-04-29T20:37:05.900Z,6.63
2019-04-29T20:39:35.711Z,6.60
2019-04-29T20:42:08.666Z,6.80
2019-04-29T20:44:36.590Z,6.23
2019-04-29T20:47:16.517Z,6.33
2019-04-29T20:49:35.945Z,6.60
2019-04-29T20:52:25.800Z,6.60
2019-04-29T20:55:00.742Z,7.07
2019-04-29T20:57:25.691Z,7.00
2019-04-29T20:59:52.529Z,6.90
2019-04-29T21:02:30.314Z,6.90
2019-04-29T21:04:48.641Z,7.03
2019-04-29T21:07:17.115Z,6.87
2019-04-29T21:09:45.736Z,7.03
2019-04-29T21:12:39.232Z,7.90
2019-04-29T21:15:14.981Z,7.40
2019-04-29T21:17:41.593Z,7.67
2019-04-29T21:20:08.907Z,7.43
2019-04-29T21:22:36.687Z,6.70
2019-04-29T21:25:03.915Z,7.63
2019-04-29T21:27:31.730Z,7.27
2019-04-29T21:29:59.100Z,7.70
2019-04-29T21:32:26.551Z,7.57
2019-04-29T21:35:10.167Z,7.70
2019-04-29T21:37:54.560Z,7.67
2019-04-29T21:40:36.241Z,7.17
2019-04-29T21:43:13.496Z,7.30
2019-04-29T21:45:39.785Z,7.77
2019-04-29T21:48:07.371Z,6.93
2019-04-29T21:50:37.979Z,7.67
2019-04-29T21:53:05.715Z,7.30
2019-04-29T21:55:33.205Z,7.10
2019-04-29T21:58:00.724Z,7.43
2019-04-29T22:00:28.499Z,6.90
2019-04-29T22:02:58.925Z,7.60
2019-04-29T22:05:26.187Z,7.60
2019-04-29T22:07:53.444Z,7.80
2019-04-29T22:10:25.245Z,8.20
2019-04-29T22:12:58.453Z,8.77
2019-04-29T22:15:30.663Z,8.00
2019-04-29T22:17:56.595Z,8.60
2019-04-29T22:20:19.382Z,9.13
2019-04-29T22:22:47.850Z,8.97
2019-04-29T22:25:15.900Z,8.20
2019-04-29T22:27:44.996Z,8.67
2019-04-29T22:30:16.788Z,8.73
2019-04-29T22:32:46.870Z,8.93
2019-04-29T22:35:13.363Z,8.33
2019-04-29T22:37:40.987Z,8.23
2019-04-29T22:40:08.775Z,8.37
2019-04-29T22:42:42.420Z,8.50
2019-04-29T22:45:09.772Z,8.77
2019-04-29T22:47:36.780Z,8.30
2019-04-29T22:50:04.820Z,8.50
2019-04-29T22:52:32.555Z,8.87
2019-04-29T22:55:01.824Z,8.43
2019-04-29T22:57:31.647Z,9.03
2019-04-29T22:59:58.484Z,8.83
2019-04-29T23:02:28.443Z,8.17
2019-04-29T23:04:55.223Z,9.00
2019-04-29T23:07:23.476Z,8.60
2019-04-29T23:09:51.587Z,9.30
2019-04-29T23:12:18.823Z,9.07
2019-04-29T23:14:46.046Z,11.13
2019-04-29T23:17:13.405Z,9.00
2019-04-29T23:19:42.335Z,9.60
2019-04-29T23:22:26.319Z,9.87
2019-04-29T23:25:05.574Z,9.07
2019-04-29T23:27:32.847Z,10.33
2019-04-29T23:30:00.559Z,8.90
2019-04-29T23:32:28.907Z,9.70
2019-04-29T23:35:01.695Z,10.43
2019-04-29T23:37:27.650Z,10.37
2019-04-29T23:39:55.812Z,9.17
2019-04-29T23:42:23.808Z,8.93
2019-04-29T23:44:51.823Z,9.23
2019-04-29T23:47:18.771Z,9.50
2019-04-29T23:49:46.874Z,9.87
2019-04-29T23:52:16.030Z,9.20
2019-04-29T23:54:48.289Z,9.50
2019-04-29T23:57:35.897Z,10.70
